createdAt,value
2022-08-21T00:00:27.948Z,18.75
2022-08-21T00:02:59.064Z,18.74
2022-08-21T00:05:27.004Z,18.70
2022-08-21T00:07:54.007Z,18.66
2022-08-21T00:10:21.004Z,18.56
2022-08-21T00:12:48.226Z,18.53
2022-08-21T00:15:20.599Z,18.56
2022-08-21T00:17:47.488Z,18.46
2022-08-21T00:20:16.833Z,18.54
2022-08-21T00:22:44.066Z,18.51
2022-08-21T00:25:12.094Z,18.70
2022-08-21T00:27:39.045Z,18.97
2022-08-21T00:30:09.774Z,19.05
2022-08-21T00:32:39.009Z,18.92
2022-08-21T00:35:12.692Z,18.72
2022-08-21T00:37:40.983Z,18.72
2022-08-21T00:40:13.184Z,18.95
2022-08-21T00:42:40.225Z,18.79
2022-08-21T00:45:07.937Z,18.74
2022-08-21T00:47:34.786Z,18.59
2022-08-21T00:50:02.033Z,18.49
2022-08-21T00:52:33.213Z,18.84
2022-08-21T00:55:01.075Z,18.60
2022-08-21T00:57:34.570Z,18.45
2022-08-21T01:00:04.948Z,18.57
2022-08-21T01:02:32.324Z,18.53
2022-08-21T01:04:59.308Z,18.58
2022-08-21T01:07:27.541Z,18.64
2022-08-21T01:09:54.662Z,18.44
2022-08-21T01:12:21.536Z,18.35
2022-08-21T01:14:49.514Z,18.32
2022-08-21T01:17:18.517Z,18.33
2022-08-21T01:19:45.347Z,18.34
2022-08-21T01:22:12.297Z,18.32
2022-08-21T01:24:39.218Z,18.58
2022-08-21T01:27:06.537Z,18.58
2022-08-21T01:29:39.717Z,18.60
2022-08-21T01:32:10.467Z,18.55
2022-08-21T01:34:40.715Z,18.54
2022-08-21T01:37:08.379Z,18.32
2022-08-21T01:39:36.735Z,18.28
2022-08-21T01:42:04.915Z,18.15
2022-08-21T01:44:32.355Z,18.09
2022-08-21T01:47:02.155Z,18.19
2022-08-21T01:49:29.792Z,18.05
2022-08-21T01:51:56.613Z,18.20
2022-08-21T01:54:23.649Z,18.15
2022-08-21T01:56:53.407Z,18.24
2022-08-21T01:59:22.494Z,18.06
2022-08-21T02:01:49.881Z,18.22
2022-08-21T02:04:16.906Z,18.09
2022-08-21T02:06:44.970Z,17.88
2022-08-21T02:09:15.014Z,18.13
2022-08-21T02:11:42.775Z,18.24
2022-08-21T02:14:15.274Z,18.43
2022-08-21T02:17:05.511Z,18.30
2022-08-21T02:19:40.413Z,18.19
2022-08-21T02:22:11.647Z,18.04
2022-08-21T02:24:54.037Z,18.11
2022-08-21T02:27:27.229Z,17.85
2022-08-21T02:29:57.760Z,17.98
2022-08-21T02:32:25.149Z,18.06
2022-08-21T02:34:53.247Z,17.92
2022-08-21T02:37:20.155Z,17.96
2022-08-21T02:39:47.051Z,17.91
2022-08-21T02:42:13.995Z,17.82
2022-08-21T02:44:40.790Z,17.85
2022-08-21T02:47:08.104Z,17.95
2022-08-21T02:49:35.009Z,17.87
2022-08-21T02:52:01.847Z,17.82
2022-08-21T02:54:28.785Z,18.07
2022-08-21T02:56:55.629Z,17.86
2022-08-21T02:59:22.457Z,17.70
2022-08-21T03:01:49.331Z,17.84
2022-08-21T03:04:16.290Z,17.71
2022-08-21T03:06:43.826Z,17.83
2022-08-21T03:09:10.694Z,17.58
2022-08-21T03:11:37.566Z,17.64
2022-08-21T03:14:06.140Z,17.92
2022-08-21T03:16:35.127Z,18.03
2022-08-21T03:19:03.753Z,17.94
2022-08-21T03:21:31.325Z,17.88
2022-08-21T03:23:58.168Z,17.89
2022-08-21T03:26:27.836Z,17.78
2022-08-21T03:28:58.660Z,17.66
2022-08-21T03:31:29.665Z,17.42
2022-08-21T03:33:57.447Z,17.58
2022-08-21T03:36:24.936Z,17.32
2022-08-21T03:38:51.848Z,17.19
2022-08-21T03:41:18.708Z,17.64
2022-08-21T03:43:45.585Z,17.39
2022-08-21T03:46:12.682Z,17.30
2022-08-21T03:48:39.939Z,17.05
2022-08-21T03:51:07.586Z,17.03
2022-08-21T03:53:35.016Z,17.21
2022-08-21T03:56:01.907Z,17.14
2022-08-21T03:58:29.522Z,16.91
2022-08-21T04:00:58.995Z,17.20
2022-08-21T04:03:27.039Z,17.30
2022-08-21T04:05:54.019Z,17.07
2022-08-21T04:08:20.971Z,17.07
2022-08-21T04:10:50.984Z,16.96
2022-08-21T04:13:18.200Z,17.16
2022-08-21T04:15:45.096Z,17.04
2022-08-21T04:18:12.067Z,16.82
2022-08-21T04:20:40.393Z,16.85
2022-08-21T04:23:08.009Z,16.88
2022-08-21T04:25:34.936Z,17.03
2022-08-21T04:28:03.076Z,17.05
2022-08-21T04:30:30.296Z,17.06
2022-08-21T04:32:59.014Z,16.79
2022-08-21T04:35:28.732Z,16.97
2022-08-21T04:37:55.666Z,17.07
2022-08-21T04:40:25.739Z,17.35
2022-08-21T04:42:55.863Z,17.30
2022-08-21T04:45:27.357Z,17.15
2022-08-21T04:47:56.424Z,17.15
2022-08-21T04:50:37.149Z,16.94
2022-08-21T04:53:08.510Z,16.94
2022-08-21T04:55:36.064Z,16.80
2022-08-21T04:58:02.974Z,16.64
2022-08-21T05:00:30.093Z,17.15
2022-08-21T05:03:00.437Z,17.05
2022-08-21T05:05:30.155Z,17.17
2022-08-21T05:08:00.436Z,17.29
2022-08-21T05:10:27.703Z,17.26
2022-08-21T05:12:55.689Z,17.33
2022-08-21T05:15:23.031Z,17.26
2022-08-21T05:17:52.402Z,17.16
2022-08-21T05:20:22.308Z,17.13
2022-08-21T05:22:49.157Z,16.98
2022-08-21T05:25:17.693Z,17.00
2022-08-21T05:27:49.247Z,16.82
2022-08-21T05:30:18.985Z,16.87
2022-08-21T05:32:45.766Z,16.68
2022-08-21T05:35:12.731Z,16.85
2022-08-21T05:37:39.597Z,16.69
2022-08-21T05:40:22.486Z,16.94
2022-08-21T05:42:55.564Z,17.02
2022-08-21T05:45:41.680Z,17.05
2022-08-21T05:48:21.214Z,17.13
2022-08-21T05:50:49.084Z,17.17
2022-08-21T05:53:18.418Z,17.45
2022-08-21T05:55:47.000Z,17.62
2022-08-21T05:58:16.747Z,17.63
2022-08-21T06:00:44.910Z,18.11
2022-08-21T06:03:13.693Z,17.72
2022-08-21T06:05:40.528Z,18.02
2022-08-21T06:08:07.289Z,18.16
2022-08-21T06:10:34.098Z,18.18
2022-08-21T06:13:01.134Z,18.37
2022-08-21T06:15:28.289Z,18.40
2022-08-21T06:17:55.913Z,18.84
2022-08-21T06:20:22.999Z,18.66
2022-08-21T06:22:49.842Z,18.70
2022-08-21T06:25:16.757Z,18.98
2022-08-21T06:27:43.658Z,18.86
2022-08-21T06:30:11.023Z,19.10
2022-08-21T06:32:38.797Z,19.42
2022-08-21T06:35:06.354Z,19.13
2022-08-21T06:37:33.785Z,19.42
2022-08-21T06:40:00.725Z,19.48
2022-08-21T06:42:29.093Z,19.75
2022-08-21T06:44:57.581Z,19.92
2022-08-21T06:47:24.668Z,19.96
2022-08-21T06:49:51.491Z,20.28
2022-08-21T06:52:18.351Z,20.50
2022-08-21T06:54:46.425Z,20.36
2022-08-21T06:57:13.282Z,20.58
2022-08-21T06:59:40.186Z,20.74
2022-08-21T07:02:07.088Z,20.45
2022-08-21T07:04:34.410Z,20.63
2022-08-21T07:07:01.289Z,20.64
2022-08-21T07:09:28.161Z,20.89
2022-08-21T07:11:56.688Z,21.10
2022-08-21T07:14:23.874Z,20.99
2022-08-21T07:16:51.772Z,21.01
2022-08-21T07:19:18.978Z,21.49
2022-08-21T07:21:46.001Z,21.62
2022-08-21T07:24:13.583Z,21.14
2022-08-21T07:26:41.117Z,21.43
2022-08-21T07:29:07.901Z,21.66
2022-08-21T07:31:34.716Z,21.66
2022-08-21T07:34:01.692Z,21.70
2022-08-21T07:36:28.601Z,21.82
2022-08-21T07:38:55.480Z,22.14
2022-08-21T07:41:25.602Z,22.06
2022-08-21T07:43:53.158Z,22.78
2022-08-21T07:46:20.632Z,22.26
2022-08-21T07:48:47.633Z,22.13
2022-08-21T07:51:17.666Z,22.23
2022-08-21T07:53:49.861Z,22.46
2022-08-21T07:56:17.539Z,21.80
2022-08-21T07:58:44.414Z,22.12
2022-08-21T08:01:11.512Z,22.35
2022-08-21T08:03:39.728Z,22.24
2022-08-21T08:06:09.562Z,22.83
2022-08-21T08:08:36.401Z,22.81
2022-08-21T08:11:03.322Z,22.66
2022-08-21T08:13:30.242Z,22.55
2022-08-21T08:15:57.617Z,22.49
2022-08-21T08:18:24.435Z,22.73
2022-08-21T08:20:51.310Z,22.93
2022-08-21T08:23:18.315Z,22.90
2022-08-21T08:25:45.178Z,22.54
2022-08-21T08:28:17.021Z,23.27
2022-08-21T08:30:47.565Z,22.89
2022-08-21T08:33:15.401Z,23.49
2022-08-21T08:35:45.640Z,23.44
2022-08-21T08:38:13.219Z,23.48
2022-08-21T08:40:49.116Z,23.53
2022-08-21T08:43:16.080Z,23.51
2022-08-21T08:45:47.793Z,23.42
2022-08-21T08:48:20.688Z,24.03
2022-08-21T08:50:57.419Z,24.07
2022-08-21T08:53:31.150Z,23.62
2022-08-21T08:55:59.067Z,23.65
2022-08-21T08:58:33.609Z,23.94
2022-08-21T09:01:01.072Z,24.13
2022-08-21T09:03:29.153Z,23.28
2022-08-21T09:06:10.393Z,23.84
2022-08-21T09:08:40.051Z,23.46
2022-08-21T09:11:30.011Z,23.45
2022-08-21T09:13:56.760Z,23.40
2022-08-21T09:16:50.565Z,23.41
2022-08-21T09:19:36.561Z,23.67
2022-08-21T09:22:18.590Z,23.75
2022-08-21T09:25:03.831Z,23.39
2022-08-21T09:27:32.417Z,23.49
2022-08-21T09:29:59.629Z,24.04
2022-08-21T09:32:37.840Z,23.82
2022-08-21T09:35:14.273Z,23.79
2022-08-21T09:37:53.568Z,22.84
2022-08-21T09:40:23.309Z,23.65
2022-08-21T09:42:59.261Z,23.61
2022-08-21T09:45:26.501Z,24.53
2022-08-21T09:47:53.376Z,24.13
2022-08-21T09:50:27.759Z,23.84
2022-08-21T09:53:01.138Z,24.31
2022-08-21T09:55:58.541Z,23.34
2022-08-21T09:58:36.081Z,25.35
2022-08-21T10:01:05.741Z,25.56
2022-08-21T10:03:32.949Z,25.65
2022-08-21T10:06:09.552Z,25.37
2022-08-21T10:08:40.122Z,25.33
2022-08-21T10:11:16.645Z,24.77
2022-08-21T10:13:46.322Z,24.72
2022-08-21T10:16:35.213Z,25.14
2022-08-21T10:19:15.470Z,25.78
2022-08-21T10:22:18.323Z,26.04
2022-08-21T10:25:20.842Z,26.41
2022-08-21T10:28:13.583Z,26.41
2022-08-21T10:31:03.775Z,25.73
2022-08-21T10:34:09.260Z,26.58
2022-08-21T10:37:13.369Z,26.34
2022-08-21T10:40:05.869Z,27.22
2022-08-21T10:42:56.615Z,27.35
2022-08-21T10:46:08.118Z,27.27
2022-08-21T10:48:46.719Z,27.16
2022-08-21T10:51:16.501Z,27.30
2022-08-21T10:53:56.081Z,26.64
2022-08-21T10:56:29.702Z,27.53
2022-08-21T10:59:09.334Z,27.04
2022-08-21T11:01:54.240Z,27.96
2022-08-21T11:04:30.009Z,28.07
2022-08-21T11:07:22.204Z,28.69
2022-08-21T11:09:50.825Z,28.33
2022-08-21T11:12:24.992Z,27.96
2022-08-21T11:14:56.445Z,27.68
2022-08-21T11:17:34.091Z,27.61
2022-08-21T11:20:23.108Z,27.28
2022-08-21T11:23:15.507Z,27.62
2022-08-21T11:25:48.135Z,25.93
2022-08-21T11:28:32.249Z,26.81
2022-08-21T11:31:23.240Z,27.08
2022-08-21T11:34:26.909Z,26.95
2022-08-21T11:37:19.542Z,27.45
2022-08-21T11:40:01.452Z,26.66
2022-08-21T11:42:39.170Z,26.66
2022-08-21T11:45:47.165Z,26.02
2022-08-21T11:48:38.792Z,26.14
2022-08-21T11:51:19.790Z,26.20
2022-08-21T11:53:54.261Z,25.24
2022-08-21T11:56:35.957Z,26.32
2022-08-21T11:59:14.832Z,26.43
2022-08-21T12:01:46.290Z,25.68
2022-08-21T12:04:46.904Z,26.10
2022-08-21T12:07:18.406Z,25.63
2022-08-21T12:09:57.145Z,26.00
2022-08-21T12:12:34.227Z,25.84
2022-08-21T12:15:22.730Z,26.49
2022-08-21T12:18:19.759Z,25.34
2022-08-21T12:21:04.679Z,25.82
2022-08-21T12:23:33.243Z,26.01
2022-08-21T12:26:04.473Z,26.59
2022-08-21T12:28:32.386Z,26.89
2022-08-21T12:30:59.560Z,27.69
2022-08-21T12:33:40.278Z,27.94
2022-08-21T12:36:22.013Z,28.17
2022-08-21T12:38:53.342Z,28.39
2022-08-21T12:41:25.647Z,28.65
2022-08-21T12:44:05.361Z,28.33
2022-08-21T12:46:47.320Z,28.48
2022-08-21T12:49:19.839Z,28.39
2022-08-21T12:51:57.534Z,27.02
2022-08-21T12:54:37.867Z,27.65
2022-08-21T12:57:06.963Z,27.50
2022-08-21T12:59:39.054Z,26.85
2022-08-21T13:02:25.850Z,27.04
2022-08-21T13:04:56.182Z,26.77
2022-08-21T13:07:35.492Z,26.60
2022-08-21T13:10:25.494Z,26.15
2022-08-21T13:12:56.005Z,26.73
2022-08-21T13:15:35.034Z,26.38
2022-08-21T13:18:04.423Z,26.14
2022-08-21T13:20:43.316Z,26.14
2022-08-21T13:23:26.935Z,26.07
2022-08-21T13:25:55.111Z,25.70
2022-08-21T13:28:22.806Z,25.66
2022-08-21T13:30:53.124Z,26.02
2022-08-21T13:33:23.994Z,26.76
2022-08-21T13:36:10.175Z,27.32
2022-08-21T13:38:40.117Z,27.81
2022-08-21T13:41:26.633Z,27.31
2022-08-21T13:44:18.440Z,27.66
2022-08-21T13:46:48.899Z,27.23
2022-08-21T13:49:20.190Z,27.58
2022-08-21T13:51:47.715Z,27.44
2022-08-21T13:54:28.047Z,27.45
2022-08-21T13:56:55.764Z,27.53
2022-08-21T13:59:35.639Z,27.54
2022-08-21T14:02:13.666Z,27.45
2022-08-21T14:05:02.617Z,27.85
2022-08-21T14:07:40.244Z,26.91
2022-08-21T14:10:21.665Z,26.81
2022-08-21T14:13:06.584Z,27.34
2022-08-21T14:15:35.440Z,28.64
2022-08-21T14:18:17.173Z,28.06
2022-08-21T14:20:44.885Z,27.80
2022-08-21T14:23:12.557Z,28.30
2022-08-21T14:25:45.942Z,28.61
2022-08-21T14:28:27.893Z,28.36
2022-08-21T14:30:57.710Z,26.90
2022-08-21T14:33:31.851Z,27.13
2022-08-21T14:35:59.738Z,26.74
2022-08-21T14:38:29.180Z,27.18
2022-08-21T14:41:04.415Z,27.02
2022-08-21T14:43:32.364Z,26.92
2022-08-21T14:45:59.382Z,26.39
2022-08-21T14:48:26.258Z,25.87
2022-08-21T14:50:57.096Z,25.65
2022-08-21T14:53:26.634Z,26.32
2022-08-21T14:56:08.655Z,26.62
2022-08-21T14:58:50.217Z,26.37
2022-08-21T15:01:19.437Z,26.63
2022-08-21T15:03:49.250Z,26.27
2022-08-21T15:06:18.497Z,26.67
2022-08-21T15:08:45.448Z,26.82
2022-08-21T15:11:41.771Z,26.96
2022-08-21T15:14:11.792Z,26.46
2022-08-21T15:16:38.792Z,25.71
2022-08-21T15:19:05.632Z,25.56
2022-08-21T15:21:32.542Z,25.96
2022-08-21T15:23:59.393Z,26.36
2022-08-21T15:26:26.968Z,26.63
2022-08-21T15:28:53.810Z,26.67
2022-08-21T15:31:20.669Z,26.81
2022-08-21T15:33:47.570Z,26.58
2022-08-21T15:36:14.616Z,25.90
2022-08-21T15:38:41.526Z,26.65
2022-08-21T15:41:08.541Z,26.63
2022-08-21T15:43:46.301Z,26.63
2022-08-21T15:46:15.521Z,26.33
2022-08-21T15:48:42.634Z,26.39
2022-08-21T15:51:11.847Z,26.42
2022-08-21T15:53:40.974Z,26.49
2022-08-21T15:56:25.652Z,26.23
2022-08-21T15:58:56.943Z,25.75
2022-08-21T16:01:23.849Z,25.88
2022-08-21T16:03:53.154Z,26.17
2022-08-21T16:06:38.483Z,25.30
2022-08-21T16:09:06.890Z,25.96
2022-08-21T16:11:33.770Z,26.22
2022-08-21T16:14:00.823Z,26.25
2022-08-21T16:16:29.125Z,26.90
2022-08-21T16:18:58.709Z,26.57
2022-08-21T16:21:25.574Z,26.95
2022-08-21T16:23:52.538Z,27.13
2022-08-21T16:26:19.434Z,27.29
2022-08-21T16:28:50.024Z,27.47
2022-08-21T16:31:17.075Z,27.45
2022-08-21T16:33:48.292Z,27.12
2022-08-21T16:36:15.897Z,26.69
2022-08-21T16:38:43.773Z,27.13
2022-08-21T16:41:13.811Z,27.12
2022-08-21T16:43:42.823Z,27.41
2022-08-21T16:46:12.239Z,26.62
2022-08-21T16:48:40.419Z,26.47
2022-08-21T16:51:07.847Z,26.64
2022-08-21T16:53:34.949Z,26.44
2022-08-21T16:56:01.914Z,26.87
2022-08-21T16:58:34.920Z,26.40
2022-08-21T17:01:06.411Z,26.52
2022-08-21T17:03:39.055Z,26.49
2022-08-21T17:06:07.984Z,26.21
2022-08-21T17:08:35.329Z,26.68
2022-08-21T17:11:03.126Z,26.83
2022-08-21T17:13:30.771Z,26.28
2022-08-21T17:15:57.621Z,26.02
2022-08-21T17:18:25.550Z,25.51
2022-08-21T17:20:52.903Z,25.73
2022-08-21T17:23:20.654Z,25.50
2022-08-21T17:25:50.926Z,25.49
2022-08-21T17:28:23.258Z,25.00
2022-08-21T17:30:51.404Z,25.04
2022-08-21T17:33:19.685Z,24.69
2022-08-21T17:35:47.252Z,24.50
2022-08-21T17:38:14.848Z,24.30
2022-08-21T17:40:42.698Z,24.33
2022-08-21T17:43:12.902Z,24.24
2022-08-21T17:45:40.608Z,24.53
2022-08-21T17:48:08.308Z,24.26
2022-08-21T17:50:35.753Z,24.18
2022-08-21T17:53:05.176Z,24.36
2022-08-21T17:55:33.982Z,24.42
2022-08-21T17:58:03.659Z,24.23
2022-08-21T18:00:31.798Z,23.86
2022-08-21T18:03:14.639Z,24.29
2022-08-21T18:05:46.795Z,23.76
2022-08-21T18:08:14.619Z,23.68
2022-08-21T18:10:45.013Z,23.82
2022-08-21T18:13:17.371Z,23.69
2022-08-21T18:15:49.074Z,23.70
2022-08-21T18:18:15.988Z,23.64
2022-08-21T18:20:42.945Z,23.72
2022-08-21T18:23:09.805Z,23.44
2022-08-21T18:25:36.793Z,23.32
2022-08-21T18:28:06.927Z,23.44
2022-08-21T18:30:41.577Z,23.22
2022-08-21T18:33:11.333Z,23.25
2022-08-21T18:35:38.138Z,23.23
2022-08-21T18:38:04.932Z,23.03
2022-08-21T18:40:33.745Z,23.13
2022-08-21T18:43:04.076Z,23.09
2022-08-21T18:45:31.132Z,22.98
2022-08-21T18:47:58.535Z,23.03
2022-08-21T18:50:27.570Z,22.97
2022-08-21T18:52:55.795Z,23.01
2022-08-21T18:55:24.645Z,22.95
2022-08-21T18:57:53.070Z,22.87
2022-08-21T19:00:24.223Z,22.89
2022-08-21T19:02:51.532Z,22.76
2022-08-21T19:05:21.139Z,22.52
2022-08-21T19:07:50.671Z,22.29
2022-08-21T19:10:24.182Z,22.28
2022-08-21T19:12:57.914Z,22.22
2022-08-21T19:15:24.970Z,22.25
2022-08-21T19:17:54.540Z,22.22
2022-08-21T19:20:27.165Z,22.16
2022-08-21T19:25:46.375Z,21.88
2022-08-21T19:28:25.962Z,21.65
2022-08-21T19:31:01.727Z,21.42
2022-08-21T19:33:34.084Z,21.41
2022-08-21T19:36:02.490Z,21.36
2022-08-21T19:38:29.862Z,21.42
2022-08-21T19:40:57.343Z,21.46
2022-08-21T19:43:24.874Z,21.33
2022-08-21T19:45:56.924Z,21.42
2022-08-21T19:48:26.039Z,21.34
2022-08-21T19:50:53.558Z,21.19
2022-08-21T19:53:20.641Z,21.21
2022-08-21T19:55:48.474Z,21.16
2022-08-21T19:58:32.283Z,21.22
2022-08-21T20:00:59.148Z,21.20
2022-08-21T20:03:26.205Z,21.13
2022-08-21T20:05:54.115Z,21.12
2022-08-21T20:08:21.203Z,21.05
2022-08-21T20:10:49.929Z,21.09
2022-08-21T20:13:22.107Z,21.09
2022-08-21T20:15:50.550Z,21.15
2022-08-21T20:18:18.334Z,21.09
2022-08-21T20:20:48.393Z,21.05
2022-08-21T20:23:17.198Z,21.06
2022-08-21T20:25:45.003Z,20.93
2022-08-21T20:28:12.988Z,20.83
2022-08-21T20:33:29.321Z,20.77
2022-08-21T20:35:56.163Z,20.84
2022-08-21T20:38:24.388Z,20.77
2022-08-21T20:40:53.537Z,20.66
2022-08-21T20:43:22.430Z,20.61
2022-08-21T20:45:50.066Z,20.56
2022-08-21T20:48:30.830Z,20.55
2022-08-21T20:51:06.184Z,20.52
2022-08-21T20:53:55.436Z,20.53
2022-08-21T20:56:33.431Z,20.51
2022-08-21T20:59:33.048Z,20.38
2022-08-21T21:02:18.329Z,20.50
2022-08-21T21:04:51.611Z,20.48
2022-08-21T21:07:24.980Z,20.48
2022-08-21T21:09:55.370Z,20.58
2022-08-21T21:12:32.548Z,20.58
2022-08-21T21:15:07.263Z,20.57
2022-08-21T21:17:50.588Z,20.63
2022-08-21T21:20:34.658Z,20.56
2022-08-21T21:23:14.723Z,20.57
2022-08-21T21:25:56.777Z,20.48
2022-08-21T21:28:43.117Z,20.47
2022-08-21T21:31:10.936Z,20.29
2022-08-21T21:33:39.722Z,19.99
2022-08-21T21:36:22.638Z,19.88
2022-08-21T21:39:10.369Z,19.99
2022-08-21T21:41:46.249Z,19.91
2022-08-21T21:44:33.080Z,19.99
2022-08-21T21:47:02.938Z,20.08
2022-08-21T21:49:49.507Z,20.03
2022-08-21T21:52:19.921Z,19.97
2022-08-21T21:55:30.872Z,20.14
2022-08-21T21:58:10.791Z,20.03
2022-08-21T22:00:52.224Z,19.99
2022-08-21T22:03:38.111Z,19.99
2022-08-21T22:06:08.792Z,19.83
2022-08-21T22:08:50.663Z,19.75
2022-08-21T22:11:35.758Z,19.91
2022-08-21T22:14:22.792Z,19.92
2022-08-21T22:16:51.237Z,19.87
2022-08-21T22:19:37.733Z,19.88
2022-08-21T22:22:34.268Z,19.77
2022-08-21T22:25:15.920Z,19.82
2022-08-21T22:27:44.630Z,19.77
2022-08-21T22:30:16.649Z,19.73
2022-08-21T22:32:50.357Z,19.86
2022-08-21T22:35:23.572Z,19.76
2022-08-21T22:37:58.685Z,19.83
2022-08-21T22:40:36.065Z,19.90
2022-08-21T22:43:09.744Z,19.97
2022-08-21T22:46:00.721Z,19.96
2022-08-21T22:48:31.320Z,20.03
2022-08-21T22:51:01.258Z,19.94
2022-08-21T22:53:30.836Z,19.93
2022-08-21T22:56:00.481Z,19.91
2022-08-21T22:58:52.297Z,20.02
2022-08-21T23:01:22.070Z,20.18
2022-08-21T23:03:57.368Z,20.20
2022-08-21T23:06:32.623Z,20.12
2022-08-21T23:09:01.123Z,20.00
2022-08-21T23:11:39.847Z,20.00
2022-08-21T23:14:07.289Z,19.92
2022-08-21T23:16:47.423Z,19.86
2022-08-21T23:19:51.973Z,19.85
2022-08-21T23:22:34.904Z,19.85
2022-08-21T23:25:24.346Z,19.98
2022-08-21T23:28:51.808Z,20.00
2022-08-21T23:31:32.592Z,19.95
2022-08-21T23:34:05.873Z,19.85
2022-08-21T23:37:48.560Z,19.76
2022-08-21T23:40:51.354Z,19.48
2022-08-21T23:43:25.649Z,19.32
2022-08-21T23:46:33.817Z,19.24
2022-08-21T23:49:13.317Z,19.17
2022-08-21T23:52:22.241Z,19.31
2022-08-21T23:55:11.203Z,19.25
2022-08-21T23:57:48.060Z,19.45
